Terminal Aerodrome Forecast
Issued by NWS

Home | Current Version | Previous Version | Text Only | Print | Product List | Glossary On
Versions: 1 2 3 4 5 6 7 8 9 10 11 12 13
000
FTUS45 KTFX 180520
TAFLWT
TAF
KLWT 180520Z 1806/1906 28020KT P6SM FEW080 BKN250
      TEMPO 1806/1810 28025G35KT BKN080
     FM181300 26015KT P6SM BKN090 BKN250=

USA.gov is the U.S. government's official web portal to all federal, state and local government web resources and services.